createdAt,value
2018-09-19T00:01:17.700Z,2.20
2018-09-19T00:03:44.157Z,2.13
2018-09-19T00:06:10.604Z,2.17
2018-09-19T00:08:37.139Z,2.70
2018-09-19T00:11:03.593Z,2.70
2018-09-19T00:13:30.030Z,2.67
2018-09-19T00:15:57.086Z,2.20
2018-09-19T00:18:23.590Z,2.07
2018-09-19T00:20:50.127Z,1.70
2018-09-19T00:23:16.638Z,2.63
2018-09-19T00:25:43.103Z,2.43
2018-09-19T00:28:09.570Z,2.33
2018-09-19T00:30:36.714Z,2.27
2018-09-19T00:33:03.185Z,2.40
2018-09-19T00:35:29.647Z,2.37
2018-09-19T00:37:56.131Z,2.40
2018-09-19T00:40:22.698Z,2.40
2018-09-19T00:42:49.218Z,2.40
2018-09-19T00:45:15.686Z,2.57
2018-09-19T00:47:42.144Z,2.10
2018-09-19T00:50:08.612Z,2.97
2018-09-19T00:52:35.237Z,2.67
2018-09-19T00:55:01.728Z,2.53
2018-09-19T00:57:28.207Z,2.53
2018-09-19T00:59:55.063Z,2.40
2018-09-19T01:02:21.576Z,2.07
2018-09-19T01:04:48.024Z,2.10
2018-09-19T01:07:14.520Z,3.10
2018-09-19T01:09:40.983Z,2.03
2018-09-19T01:12:07.470Z,2.60
2018-09-19T01:14:33.986Z,2.70
2018-09-19T01:17:00.433Z,2.67
2018-09-19T01:19:26.906Z,2.10
2018-09-19T01:21:53.381Z,2.23
2018-09-19T01:24:19.883Z,2.50
2018-09-19T01:26:46.369Z,3.00
2018-09-19T01:29:12.855Z,2.00
2018-09-19T01:31:39.516Z,2.33
2018-09-19T01:34:05.953Z,2.43
2018-09-19T01:36:32.475Z,2.80
2018-09-19T01:38:58.983Z,2.23
2018-09-19T01:41:25.532Z,2.13
2018-09-19T01:43:51.990Z,2.57
2018-09-19T01:46:18.603Z,2.03
2018-09-19T01:48:45.102Z,2.30
2018-09-19T01:51:11.982Z,2.63
2018-09-19T01:53:38.452Z,2.20
2018-09-19T01:56:04.933Z,2.47
2018-09-19T01:58:31.412Z,2.43
2018-09-19T02:00:57.851Z,1.93
2018-09-19T02:03:24.340Z,2.00
2018-09-19T02:05:51.720Z,2.43
2018-09-19T02:08:18.182Z,2.17
2018-09-19T02:10:45.281Z,2.13
2018-09-19T02:13:12.469Z,2.63
2018-09-19T02:15:39.707Z,2.37
2018-09-19T02:18:06.167Z,2.27
2018-09-19T02:20:33.279Z,2.00
2018-09-19T02:23:00.076Z,1.77
2018-09-19T02:25:26.514Z,2.30
2018-09-19T02:27:53.042Z,1.80
2018-09-19T02:30:19.514Z,2.13
2018-09-19T02:32:46.037Z,2.10
2018-09-19T02:35:12.520Z,2.90
2018-09-19T02:37:39.022Z,2.33
2018-09-19T02:40:05.487Z,2.10
2018-09-19T02:42:32.002Z,1.90
2018-09-19T02:44:58.519Z,2.37
2018-09-19T02:47:25.015Z,1.80
2018-09-19T02:49:51.619Z,2.07
2018-09-19T02:52:18.077Z,2.37
2018-09-19T02:54:44.558Z,2.30
2018-09-19T02:57:11.032Z,2.60
2018-09-19T02:59:37.507Z,2.30
2018-09-19T03:02:03.994Z,2.67
2018-09-19T03:04:30.724Z,2.70
2018-09-19T03:06:57.877Z,2.10
2018-09-19T03:09:24.326Z,2.20
2018-09-19T03:11:50.770Z,2.20
2018-09-19T03:14:17.276Z,2.40
2018-09-19T03:16:43.741Z,2.40
2018-09-19T03:19:10.212Z,2.37
2018-09-19T03:21:36.639Z,2.77
2018-09-19T03:24:03.093Z,2.07
2018-09-19T03:26:29.545Z,2.30
2018-09-19T03:28:56.060Z,2.10
2018-09-19T03:31:22.513Z,2.00
2018-09-19T03:33:49.651Z,2.10
2018-09-19T03:36:16.137Z,2.80
2018-09-19T03:38:43.220Z,2.17
2018-09-19T03:41:09.688Z,2.20
2018-09-19T03:43:36.231Z,2.30
2018-09-19T03:46:02.836Z,2.40
2018-09-19T03:48:29.418Z,2.20
2018-09-19T03:50:55.914Z,2.23
2018-09-19T03:53:22.422Z,2.30
2018-09-19T03:55:49.480Z,3.13
2018-09-19T03:58:16.083Z,2.10
2018-09-19T04:00:42.560Z,2.40
2018-09-19T04:03:09.051Z,1.83
2018-09-19T04:05:35.488Z,2.67
2018-09-19T04:08:02.095Z,2.70
2018-09-19T04:10:28.612Z,2.23
2018-09-19T04:12:55.057Z,2.40
2018-09-19T04:15:21.526Z,2.60
2018-09-19T04:17:48.104Z,1.60
2018-09-19T04:20:14.584Z,2.53
2018-09-19T04:22:41.074Z,2.17
2018-09-19T04:25:07.554Z,2.37
2018-09-19T04:27:34.051Z,2.27
2018-09-19T04:30:00.542Z,2.10
2018-09-19T04:32:27.093Z,2.00
2018-09-19T04:34:53.567Z,2.10
2018-09-19T04:37:20.043Z,2.20
2018-09-19T04:39:46.491Z,2.83
2018-09-19T04:42:13.049Z,2.80
2018-09-19T04:44:39.559Z,2.13
2018-09-19T04:47:05.990Z,2.00
2018-09-19T04:49:32.491Z,2.60
2018-09-19T04:51:58.939Z,1.80
2018-09-19T04:54:25.400Z,2.13
2018-09-19T04:56:51.837Z,2.80
2018-09-19T04:59:18.344Z,3.23
2018-09-19T05:01:44.799Z,3.37
2018-09-19T05:04:11.280Z,3.63
2018-09-19T05:06:37.873Z,3.07
2018-09-19T05:09:04.557Z,3.37
2018-09-19T05:11:31.071Z,2.77
2018-09-19T05:13:57.478Z,3.23
2018-09-19T05:16:23.947Z,2.83
2018-09-19T05:18:50.770Z,2.70
2018-09-19T05:21:17.253Z,3.50
2018-09-19T05:23:43.809Z,2.90
2018-09-19T05:26:10.297Z,3.00
2018-09-19T05:28:36.803Z,3.27
2018-09-19T05:31:03.309Z,3.50
2018-09-19T05:33:29.797Z,3.13
2018-09-19T05:35:56.255Z,3.17
2018-09-19T05:38:22.733Z,3.40
2018-09-19T05:40:49.389Z,2.70
2018-09-19T05:43:15.904Z,3.03
2018-09-19T05:45:44.291Z,3.03
2018-09-19T05:48:10.887Z,3.27
2018-09-19T05:50:37.380Z,3.27
2018-09-19T05:53:03.939Z,3.03
2018-09-19T05:55:30.392Z,2.63
2018-09-19T05:57:56.877Z,2.97
2018-09-19T06:00:23.354Z,2.97
2018-09-19T06:02:49.896Z,2.57
2018-09-19T06:05:16.375Z,2.60
2018-09-19T06:07:42.855Z,2.70
2018-09-19T06:10:09.390Z,2.80
2018-09-19T06:12:35.870Z,2.50
2018-09-19T06:15:02.379Z,2.43
2018-09-19T06:17:28.983Z,3.57
2018-09-19T06:19:55.525Z,2.73
2018-09-19T06:22:22.326Z,2.53
2018-09-19T06:24:49.752Z,2.67
2018-09-19T06:27:16.217Z,2.50
2018-09-19T06:29:42.790Z,3.10
2018-09-19T06:32:09.261Z,2.47
2018-09-19T06:34:36.387Z,2.53
2018-09-19T06:37:02.971Z,2.43
2018-09-19T06:39:29.480Z,2.60
2018-09-19T06:41:56.027Z,2.00
2018-09-19T06:44:26.789Z,3.00
2018-09-19T06:46:53.390Z,2.50
2018-09-19T06:49:19.889Z,2.47
2018-09-19T06:51:46.365Z,2.67
2018-09-19T06:54:12.841Z,2.83
2018-09-19T06:56:39.354Z,2.07
2018-09-19T06:59:05.825Z,2.33
2018-09-19T07:01:32.325Z,2.37
2018-09-19T07:03:58.916Z,2.37
2018-09-19T07:06:25.424Z,2.70
2018-09-19T07:08:52.610Z,2.03
2018-09-19T07:11:19.446Z,2.53
2018-09-19T07:13:46.184Z,2.63
2018-09-19T07:16:12.651Z,2.30
2018-09-19T07:18:39.149Z,2.80
2018-09-19T07:21:05.648Z,2.07
2018-09-19T07:23:32.116Z,2.53
2018-09-19T07:25:59.136Z,2.37
2018-09-19T07:28:25.592Z,2.67
2018-09-19T07:30:52.450Z,2.07
2018-09-19T07:33:19.151Z,2.47
2018-09-19T07:35:45.622Z,3.07
2018-09-19T07:38:12.076Z,2.70
2018-09-19T07:40:38.617Z,1.83
2018-09-19T07:43:05.072Z,2.50
2018-09-19T07:45:31.572Z,2.10
2018-09-19T07:47:58.024Z,2.50
2018-09-19T07:50:24.470Z,2.37
2018-09-19T07:52:50.963Z,2.27
2018-09-19T07:55:17.480Z,2.57
2018-09-19T07:57:43.963Z,2.40
2018-09-19T08:00:10.437Z,2.00
2018-09-19T08:02:36.906Z,1.80
2018-09-19T08:05:03.393Z,2.30
2018-09-19T08:07:29.879Z,2.10
2018-09-19T08:09:56.737Z,2.00
2018-09-19T08:12:23.214Z,2.27
2018-09-19T08:14:49.687Z,1.97
2018-09-19T08:17:16.189Z,2.47
2018-09-19T08:19:42.659Z,2.00
2018-09-19T08:22:09.175Z,1.77
2018-09-19T08:24:35.631Z,1.60
2018-09-19T08:27:02.116Z,1.90
2018-09-19T08:29:28.612Z,1.83
2018-09-19T08:31:55.070Z,2.63
2018-09-19T08:34:21.559Z,1.93
2018-09-19T08:36:48.931Z,2.30
2018-09-19T08:39:15.446Z,2.20
2018-09-19T08:41:41.915Z,2.53
2018-09-19T08:44:08.409Z,2.30
2018-09-19T08:46:35.968Z,1.87
2018-09-19T08:49:02.460Z,2.00
2018-09-19T08:51:28.990Z,2.23
2018-09-19T08:53:55.842Z,1.87
2018-09-19T08:56:22.729Z,1.73
2018-09-19T08:58:49.170Z,1.60
2018-09-19T09:01:15.624Z,1.90
2018-09-19T09:03:42.106Z,2.17
2018-09-19T09:06:08.631Z,2.33
2018-09-19T09:08:35.127Z,2.03
2018-09-19T09:11:01.702Z,1.77
2018-09-19T09:13:28.241Z,2.00
2018-09-19T09:15:54.744Z,1.93
2018-09-19T09:18:21.392Z,2.10
2018-09-19T09:21:00.028Z,1.80
2018-09-19T09:23:36.416Z,2.00
2018-09-19T09:26:03.031Z,2.10
2018-09-19T09:28:29.466Z,1.80
2018-09-19T09:30:55.964Z,2.17
2018-09-19T09:33:22.458Z,1.80
2018-09-19T09:35:48.897Z,2.07
2018-09-19T09:38:15.349Z,1.67
2018-09-19T09:40:41.894Z,1.67
2018-09-19T09:43:08.357Z,2.17
2018-09-19T09:45:34.867Z,2.23
2018-09-19T09:48:01.344Z,1.73
2018-09-19T09:50:27.902Z,1.80
2018-09-19T09:52:54.329Z,1.93
2018-09-19T09:55:21.004Z,1.70
2018-09-19T09:57:47.504Z,1.80
2018-09-19T10:00:18.526Z,2.00
2018-09-19T10:02:44.998Z,1.97
2018-09-19T10:05:11.478Z,1.80
2018-09-19T10:07:37.974Z,1.80
2018-09-19T10:10:04.450Z,2.27
2018-09-19T10:12:30.937Z,2.07
2018-09-19T10:14:57.404Z,1.83
2018-09-19T10:17:23.982Z,2.43
2018-09-19T10:19:50.428Z,1.90
2018-09-19T10:22:17.170Z,2.13
2018-09-19T10:24:44.307Z,2.20
2018-09-19T10:27:10.751Z,1.50
2018-09-19T10:29:37.252Z,1.70
2018-09-19T10:32:03.747Z,2.10
2018-09-19T10:34:30.220Z,1.60
2018-09-19T10:36:57.081Z,2.60
2018-09-19T10:39:23.576Z,1.70
2018-09-19T10:41:50.228Z,2.00
2018-09-19T10:44:16.712Z,1.73
2018-09-19T10:46:43.217Z,1.87
2018-09-19T10:49:09.710Z,1.70
2018-09-19T10:51:36.277Z,2.20
2018-09-19T10:54:02.752Z,1.70
2018-09-19T10:56:29.248Z,2.03
2018-09-19T10:58:55.746Z,1.73
2018-09-19T11:01:22.215Z,1.83
2018-09-19T11:03:48.720Z,1.63
2018-09-19T11:06:15.205Z,1.93
2018-09-19T11:08:41.711Z,1.83
2018-09-19T11:11:08.523Z,1.87
2018-09-19T11:13:35.171Z,2.00
2018-09-19T11:16:02.359Z,2.33
2018-09-19T11:18:28.849Z,1.47
2018-09-19T11:20:55.375Z,1.83
2018-09-19T11:23:21.959Z,1.63
2018-09-19T11:25:48.461Z,1.93
2018-09-19T11:28:14.930Z,1.90
2018-09-19T11:30:41.381Z,1.83
2018-09-19T11:33:07.867Z,2.27
2018-09-19T11:35:34.344Z,1.73
2018-09-19T11:38:01.512Z,2.03
2018-09-19T11:40:28.043Z,2.20
2018-09-19T11:42:54.559Z,1.80
2018-09-19T11:45:21.408Z,2.13
2018-09-19T11:47:47.860Z,1.90
2018-09-19T11:50:14.355Z,2.27
2018-09-19T11:52:40.820Z,1.80
2018-09-19T11:55:07.257Z,2.00
2018-09-19T11:57:33.713Z,2.03
2018-09-19T12:00:00.270Z,1.73
2018-09-19T12:02:26.752Z,1.73
2018-09-19T12:04:53.297Z,2.00
2018-09-19T12:07:19.827Z,1.93
2018-09-19T12:09:46.468Z,1.90
2018-09-19T12:12:12.916Z,1.60
2018-09-19T12:14:39.374Z,2.00
2018-09-19T12:17:05.828Z,1.83
2018-09-19T12:19:32.367Z,2.20
2018-09-19T12:21:58.819Z,1.80
2018-09-19T12:24:25.280Z,1.97
2018-09-19T12:26:51.830Z,1.80
2018-09-19T12:29:18.289Z,1.67
2018-09-19T12:31:44.751Z,2.03
2018-09-19T12:34:11.247Z,1.80
2018-09-19T12:36:37.729Z,2.20
2018-09-19T12:39:04.476Z,2.00
2018-09-19T12:41:30.945Z,2.23
2018-09-19T12:43:57.405Z,1.67
2018-09-19T12:46:23.853Z,2.10
2018-09-19T12:48:50.451Z,1.93
2018-09-19T12:51:16.926Z,1.83
2018-09-19T12:53:43.363Z,2.10
2018-09-19T12:56:09.973Z,2.03
2018-09-19T12:58:36.696Z,1.80
2018-09-19T13:01:03.119Z,1.80
2018-09-19T13:03:29.579Z,1.93
2018-09-19T13:05:56.061Z,1.87
2018-09-19T13:08:23.065Z,2.30
2018-09-19T13:10:49.551Z,2.03
2018-09-19T13:13:16.063Z,2.27
2018-09-19T13:15:43.587Z,1.87
2018-09-19T13:18:10.080Z,2.10
2018-09-19T13:20:37.331Z,1.83
2018-09-19T13:23:03.827Z,2.13
2018-09-19T13:25:30.332Z,1.90
2018-09-19T13:27:56.963Z,1.77
2018-09-19T13:30:23.446Z,2.07
2018-09-19T13:32:49.953Z,1.80
2018-09-19T13:35:16.437Z,2.30
2018-09-19T13:37:42.974Z,1.53
2018-09-19T13:40:09.457Z,2.00
2018-09-19T13:42:35.967Z,1.93
2018-09-19T13:45:02.450Z,1.80
2018-09-19T13:47:29.002Z,1.60
2018-09-19T13:50:03.546Z,1.50
2018-09-19T13:52:29.981Z,1.80
2018-09-19T13:54:56.987Z,1.70
2018-09-19T13:57:23.443Z,2.17
2018-09-19T13:59:49.919Z,2.20
2018-09-19T14:02:16.391Z,2.03
2018-09-19T14:04:42.923Z,1.57
2018-09-19T14:07:09.377Z,2.13
2018-09-19T14:09:35.832Z,1.50
2018-09-19T14:12:02.299Z,1.50
2018-09-19T14:14:28.800Z,1.83
2018-09-19T14:16:55.236Z,2.23
2018-09-19T14:19:21.674Z,1.77
2018-09-19T14:21:48.160Z,1.80
2018-09-19T14:24:14.868Z,2.03
2018-09-19T14:26:41.410Z,1.73
2018-09-19T14:29:07.901Z,1.90
2018-09-19T14:31:34.382Z,1.60
2018-09-19T14:34:00.902Z,1.63
2018-09-19T14:36:28.023Z,1.90
2018-09-19T14:38:54.624Z,1.67
2018-09-19T14:41:21.283Z,1.90
2018-09-19T14:43:47.683Z,1.63
2018-09-19T14:46:14.131Z,1.97
2018-09-19T14:48:40.672Z,2.33
2018-09-19T14:51:07.086Z,1.53
2018-09-19T14:53:33.590Z,1.77
2018-09-19T14:56:00.047Z,1.80
2018-09-19T14:58:27.053Z,2.07
2018-09-19T15:00:53.659Z,1.70
2018-09-19T15:03:20.184Z,1.63
2018-09-19T15:05:46.693Z,1.53
2018-09-19T15:08:13.157Z,1.67
2018-09-19T15:10:39.615Z,1.57
2018-09-19T15:13:06.131Z,1.90
2018-09-19T15:15:33.917Z,1.80
2018-09-19T15:18:00.458Z,1.70
2018-09-19T15:20:27.027Z,1.70
2018-09-19T15:22:53.503Z,1.80
2018-09-19T15:25:19.971Z,1.63
2018-09-19T15:27:46.467Z,1.80
2018-09-19T15:30:12.977Z,1.73
2018-09-19T15:32:39.500Z,1.63
2018-09-19T15:35:05.973Z,1.47
2018-09-19T15:37:32.958Z,1.77
2018-09-19T15:40:00.055Z,1.60
2018-09-19T15:42:26.594Z,1.70
2018-09-19T15:44:53.253Z,1.60
2018-09-19T15:47:19.764Z,1.57
2018-09-19T15:49:46.284Z,1.17
2018-09-19T15:52:12.769Z,1.50
2018-09-19T15:54:39.258Z,1.40
2018-09-19T15:57:05.801Z,1.50
2018-09-19T15:59:32.264Z,2.00
2018-09-19T16:01:58.777Z,1.60
2018-09-19T16:04:25.246Z,1.80
2018-09-19T16:06:51.711Z,2.07
2018-09-19T16:09:18.172Z,1.80
2018-09-19T16:11:44.664Z,1.50
2018-09-19T16:14:11.166Z,1.60
2018-09-19T16:16:37.665Z,2.03
2018-09-19T16:19:04.126Z,1.97
2018-09-19T16:21:30.680Z,2.40
2018-09-19T16:23:57.204Z,1.57
2018-09-19T16:26:23.956Z,1.70
2018-09-19T16:28:50.411Z,2.13
2018-09-19T16:31:16.878Z,1.90
2018-09-19T16:33:43.328Z,1.60
2018-09-19T16:36:09.790Z,1.70
2018-09-19T16:38:36.273Z,1.77
2018-09-19T16:41:02.790Z,1.70
2018-09-19T16:43:29.908Z,1.67
2018-09-19T16:45:57.233Z,1.93
2018-09-19T16:48:23.656Z,2.67
2018-09-19T16:50:50.162Z,2.00
2018-09-19T16:53:16.632Z,1.93
2018-09-19T16:55:43.112Z,1.70
2018-09-19T16:58:09.582Z,1.70
2018-09-19T17:00:36.064Z,1.70
2018-09-19T17:03:02.665Z,1.70
2018-09-19T17:05:29.118Z,2.00
2018-09-19T17:07:55.696Z,1.97
2018-09-19T17:10:22.180Z,1.50
2018-09-19T17:12:49.191Z,1.50
2018-09-19T17:15:15.752Z,2.07
2018-09-19T17:17:42.228Z,1.40
2018-09-19T17:20:08.691Z,1.53
2018-09-19T17:22:35.165Z,1.70
2018-09-19T17:25:02.707Z,1.70
2018-09-19T17:27:29.192Z,1.80
2018-09-19T17:29:55.690Z,2.10
2018-09-19T17:32:22.245Z,2.20
2018-09-19T17:34:48.891Z,1.97
2018-09-19T17:37:15.442Z,1.77
2018-09-19T17:39:41.901Z,1.70
2018-09-19T17:42:08.441Z,2.60
2018-09-19T17:44:34.957Z,2.03
2018-09-19T17:47:01.455Z,2.07
2018-09-19T17:49:27.941Z,3.07
2018-09-19T17:51:55.045Z,2.90
2018-09-19T17:54:21.563Z,3.30
2018-09-19T17:56:48.741Z,2.93
2018-09-19T17:59:15.207Z,2.90
2018-09-19T18:01:41.683Z,2.60
2018-09-19T18:04:08.267Z,3.20
2018-09-19T18:06:34.984Z,2.37
2018-09-19T18:09:01.435Z,2.60
2018-09-19T18:11:27.896Z,2.40
2018-09-19T18:13:54.384Z,3.13
2018-09-19T18:16:21.621Z,4.93
2018-09-19T18:18:48.199Z,3.57
2018-09-19T18:21:23.882Z,3.63
2018-09-19T18:23:58.371Z,2.17
2018-09-19T18:26:24.848Z,2.30
2018-09-19T18:28:51.332Z,2.57
2018-09-19T18:31:18.053Z,3.07
2018-09-19T18:33:44.517Z,2.37
2018-09-19T18:36:10.991Z,2.27
2018-09-19T18:38:37.514Z,2.80
2018-09-19T18:41:03.933Z,1.87
2018-09-19T18:43:30.391Z,2.13
2018-09-19T18:45:56.842Z,2.30
2018-09-19T18:48:23.301Z,2.00
2018-09-19T18:50:49.794Z,2.30
2018-09-19T18:53:16.280Z,3.10
2018-09-19T18:55:43.249Z,1.90
2018-09-19T18:58:10.270Z,2.20
2018-09-19T19:00:36.784Z,2.27
2018-09-19T19:03:03.293Z,2.40
2018-09-19T19:05:29.813Z,2.33
2018-09-19T19:07:56.313Z,2.20
2018-09-19T19:10:23.429Z,2.07
2018-09-19T19:12:49.940Z,2.03
2018-09-19T19:15:16.399Z,1.80
2018-09-19T19:17:42.850Z,2.30
2018-09-19T19:20:09.335Z,1.63
2018-09-19T19:22:35.875Z,2.23
2018-09-19T19:25:06.680Z,2.20
2018-09-19T19:27:35.436Z,2.27
2018-09-19T19:30:05.160Z,2.87
2018-09-19T19:32:33.040Z,2.90
2018-09-19T19:35:00.352Z,2.50
2018-09-19T19:37:28.548Z,4.03
2018-09-19T19:39:55.107Z,3.77
2018-09-19T19:42:22.159Z,4.27
2018-09-19T19:44:48.678Z,2.90
2018-09-19T19:47:15.306Z,3.67
2018-09-19T19:49:41.803Z,3.13
2018-09-19T19:52:08.310Z,3.20
2018-09-19T19:54:34.817Z,3.80
2018-09-19T19:57:01.288Z,4.07
2018-09-19T19:59:27.749Z,3.37
2018-09-19T20:01:54.215Z,2.47
2018-09-19T20:04:20.659Z,4.00
2018-09-19T20:06:47.147Z,3.43
2018-09-19T20:09:13.627Z,4.27
2018-09-19T20:11:40.144Z,3.90
2018-09-19T20:14:06.820Z,3.17
2018-09-19T20:16:33.333Z,2.90
2018-09-19T20:18:59.893Z,3.47
2018-09-19T20:21:26.370Z,3.07
2018-09-19T20:23:52.831Z,2.97
2018-09-19T20:26:19.343Z,3.87
2018-09-19T20:28:45.830Z,3.27
2018-09-19T20:31:12.337Z,4.07
2018-09-19T20:33:39.172Z,2.33
2018-09-19T20:36:05.670Z,2.83
2018-09-19T20:38:32.158Z,4.27
2018-09-19T20:40:58.862Z,3.30
2018-09-19T20:43:25.380Z,2.73
2018-09-19T20:45:51.863Z,3.10
2018-09-19T20:48:18.350Z,3.00
2018-09-19T20:50:44.858Z,3.03
2018-09-19T20:53:11.376Z,3.50
2018-09-19T20:55:37.839Z,3.40
2018-09-19T20:58:04.351Z,2.90
2018-09-19T21:00:30.890Z,3.17
2018-09-19T21:02:57.742Z,3.03
2018-09-19T21:05:24.202Z,2.50
2018-09-19T21:07:50.682Z,3.30
2018-09-19T21:10:17.263Z,2.23
2018-09-19T21:12:43.892Z,2.47
2018-09-19T21:15:10.400Z,3.30
2018-09-19T21:17:36.900Z,2.87
2018-09-19T21:20:03.343Z,2.43
2018-09-19T21:22:30.822Z,2.83
2018-09-19T21:24:57.252Z,2.40
2018-09-19T21:27:23.728Z,2.83
2018-09-19T21:29:50.165Z,2.50
2018-09-19T21:32:16.692Z,2.63
2018-09-19T21:34:43.172Z,2.80
2018-09-19T21:37:09.685Z,2.50
2018-09-19T21:39:36.186Z,3.30
2018-09-19T21:42:02.651Z,2.17
2018-09-19T21:44:29.201Z,2.30
2018-09-19T21:46:55.718Z,3.60
2018-09-19T21:49:22.224Z,3.03
2018-09-19T21:51:48.708Z,2.20
2018-09-19T21:54:15.177Z,2.47
2018-09-19T21:56:41.661Z,2.10
2018-09-19T21:59:08.133Z,2.57
2018-09-19T22:01:42.559Z,2.77
2018-09-19T22:04:09.315Z,2.67
2018-09-19T22:06:36.132Z,2.63
2018-09-19T22:09:03.062Z,2.60
2018-09-19T22:11:29.543Z,2.73
2018-09-19T22:13:56.001Z,3.03
2018-09-19T22:16:22.468Z,2.40
2018-09-19T22:18:48.968Z,2.80
2018-09-19T22:21:15.437Z,2.57
2018-09-19T22:23:42.454Z,2.73
2018-09-19T22:26:08.973Z,3.07
2018-09-19T22:28:35.405Z,2.60
2018-09-19T22:31:01.900Z,2.53
2018-09-19T22:33:28.427Z,2.83
2018-09-19T22:35:54.925Z,2.80
2018-09-19T22:38:22.066Z,2.53
2018-09-19T22:40:48.510Z,2.57
2018-09-19T22:43:14.982Z,2.17
2018-09-19T22:45:41.527Z,2.73
2018-09-19T22:48:08.508Z,2.87
2018-09-19T22:50:35.617Z,2.13
2018-09-19T22:53:02.668Z,2.10
2018-09-19T22:55:29.702Z,2.70
2018-09-19T22:57:56.172Z,2.73
2018-09-19T23:00:22.666Z,1.80
2018-09-19T23:02:49.108Z,2.20
2018-09-19T23:05:15.587Z,2.33
2018-09-19T23:07:42.063Z,2.23
2018-09-19T23:10:08.552Z,2.00
2018-09-19T23:12:44.894Z,2.63
2018-09-19T23:15:11.400Z,2.00
2018-09-19T23:17:38.165Z,2.37
2018-09-19T23:20:04.630Z,2.57
2018-09-19T23:22:31.145Z,2.77
2018-09-19T23:24:57.735Z,2.27
2018-09-19T23:27:24.202Z,3.30
2018-09-19T23:29:50.931Z,1.87
2018-09-19T23:32:17.517Z,2.13
2018-09-19T23:34:43.984Z,2.00
2018-09-19T23:37:10.423Z,2.20
2018-09-19T23:39:36.864Z,2.83
2018-09-19T23:42:03.465Z,2.00
2018-09-19T23:44:29.955Z,2.50
2018-09-19T23:46:56.387Z,2.53
2018-09-19T23:49:22.869Z,2.73
2018-09-19T23:51:49.462Z,2.17
2018-09-19T23:54:15.949Z,2.63
2018-09-19T23:56:42.392Z,3.00
2018-09-19T23:59:08.865Z,2.20
